createdAt,value
2023-06-22T00:01:28.228Z,7.30
2023-06-22T00:11:27.762Z,6.90
2023-06-22T00:21:27.471Z,6.50
2023-06-22T00:31:32.553Z,7.20
2023-06-22T00:41:32.504Z,6.50
2023-06-22T00:51:31.794Z,5.90
2023-06-22T01:01:31.566Z,6.70
2023-06-22T01:11:36.589Z,5.90
2023-06-22T01:21:36.251Z,5.70
2023-06-22T01:31:35.917Z,6.50
2023-06-22T01:41:35.706Z,6.00
2023-06-22T01:51:41.144Z,6.30
2023-06-22T02:01:40.478Z,5.90
2023-06-22T02:11:40.810Z,5.90
2023-06-22T02:21:40.116Z,6.40
2023-06-22T02:31:45.433Z,6.20
2023-06-22T02:41:44.852Z,6.60
2023-06-22T02:51:47.825Z,6.50
2023-06-22T03:01:44.456Z,7.40
2023-06-22T03:11:49.588Z,7.30
2023-06-22T03:21:49.216Z,7.20
2023-06-22T03:31:49.176Z,7.30
2023-06-22T03:41:48.599Z,7.50
2023-06-22T03:51:53.767Z,7.10
2023-06-22T04:01:53.558Z,6.70
2023-06-22T04:11:53.013Z,7.20
2023-06-22T04:21:52.688Z,7.30
2023-06-22T04:31:57.841Z,6.70
2023-06-22T04:41:57.434Z,6.80
2023-06-22T04:51:57.759Z,7.30
2023-06-22T05:01:56.999Z,7.50
2023-06-22T05:12:02.689Z,8.20
2023-06-22T05:22:04.429Z,9.10
2023-06-22T05:32:01.270Z,10.20
2023-06-22T05:42:02.788Z,10.20
2023-06-22T05:52:06.332Z,10.60
2023-06-22T06:02:06.131Z,11.10
2023-06-22T06:12:07.470Z,11.00
2023-06-22T06:22:05.752Z,10.30
2023-06-22T06:32:10.587Z,11.10
2023-06-22T06:42:11.338Z,11.30
2023-06-22T06:52:09.831Z,11.50
2023-06-22T07:02:09.762Z,10.60
2023-06-22T07:12:14.876Z,11.20
2023-06-22T07:22:14.583Z,11.10
2023-06-22T07:32:14.325Z,10.70
2023-06-22T07:42:19.361Z,11.00
2023-06-22T07:52:18.939Z,10.90
2023-06-22T08:02:18.626Z,10.40
2023-06-22T08:12:18.344Z,11.30
2023-06-22T08:22:23.327Z,11.80
2023-06-22T08:32:23.254Z,10.30
2023-06-22T08:42:22.767Z,9.10
2023-06-22T08:52:27.752Z,9.50
2023-06-22T09:02:27.594Z,8.70
2023-06-22T09:12:26.974Z,8.20
2023-06-22T09:22:26.624Z,8.70
2023-06-22T09:32:31.810Z,8.50
2023-06-22T09:42:31.557Z,8.40
2023-06-22T09:52:43.313Z,8.30
2023-06-22T10:02:36.301Z,8.30
2023-06-22T10:12:37.957Z,8.10
2023-06-22T10:22:35.606Z,8.90
2023-06-22T10:32:42.358Z,8.60
2023-06-22T10:42:40.254Z,9.20
2023-06-22T10:52:42.054Z,9.10
2023-06-22T11:02:45.622Z,9.70
2023-06-22T11:12:44.823Z,10.00
2023-06-22T11:22:44.431Z,10.10
2023-06-22T11:32:49.642Z,10.60
2023-06-22T11:42:49.208Z,11.10
2023-06-22T11:52:48.851Z,10.80
2023-06-22T12:02:54.057Z,7.80
2023-06-22T12:12:53.593Z,8.60
2023-06-22T12:22:53.210Z,10.00
2023-06-22T12:32:54.481Z,6.70
2023-06-22T12:42:58.404Z,5.90
2023-06-22T12:52:57.909Z,7.00
2023-06-22T13:02:57.652Z,9.00
2023-06-22T13:13:02.640Z,9.90
2023-06-22T13:23:04.357Z,8.10
2023-06-22T13:33:01.963Z,7.70
2023-06-22T13:43:01.602Z,6.60
2023-06-22T13:53:06.865Z,6.70
2023-06-22T14:03:08.119Z,5.90
2023-06-22T14:13:05.979Z,7.60
2023-06-22T14:23:05.855Z,8.00
2023-06-22T14:33:11.189Z,8.50
2023-06-22T14:43:10.639Z,7.00
2023-06-22T14:53:10.292Z,7.40
2023-06-22T15:03:15.492Z,7.40
2023-06-22T15:13:15.039Z,7.80
2023-06-22T15:23:14.655Z,8.40
2023-06-22T15:33:14.489Z,9.30
2023-06-22T15:43:19.593Z,9.30
2023-06-22T15:53:19.193Z,10.20
2023-06-22T16:03:18.835Z,9.70
2023-06-22T16:13:18.909Z,10.10
2023-06-22T16:23:24.054Z,10.30
2023-06-22T16:33:23.884Z,10.60
2023-06-22T16:43:23.345Z,10.30
2023-06-22T16:53:28.474Z,9.40
2023-06-22T17:03:28.153Z,9.60
2023-06-22T17:13:27.766Z,10.40
2023-06-22T17:23:27.336Z,9.80
2023-06-22T17:33:32.513Z,8.00
2023-06-22T17:43:32.259Z,6.90
2023-06-22T17:53:31.956Z,5.50
2023-06-22T18:03:31.779Z,5.60
2023-06-22T18:13:36.794Z,5.00
2023-06-22T18:23:36.395Z,5.20
2023-06-22T18:33:36.031Z,4.90
2023-06-22T18:43:41.303Z,5.30
2023-06-22T18:53:40.787Z,7.20
2023-06-22T19:03:40.461Z,5.60
2023-06-22T19:13:40.038Z,6.50
2023-06-22T19:23:45.304Z,6.20
2023-06-22T19:33:44.828Z,6.10
2023-06-22T19:43:44.446Z,7.20
2023-06-22T19:53:44.509Z,12.00
2023-06-22T20:03:49.685Z,13.60
2023-06-22T20:13:49.261Z,19.10
2023-06-22T20:23:48.890Z,21.10
2023-06-22T20:33:48.850Z,6.40
2023-06-22T20:43:53.987Z,3.30
2023-06-22T20:53:53.583Z,3.60
2023-06-22T21:03:53.294Z,3.70
2023-06-22T21:13:54.738Z,3.00
2023-06-22T21:23:52.840Z,3.10
2023-06-22T21:33:57.926Z,3.30
2023-06-22T21:43:57.592Z,3.50
2023-06-22T21:53:57.217Z,3.80
2023-06-22T22:03:56.892Z,4.70
2023-06-22T22:13:56.495Z,5.00
2023-06-22T22:23:56.458Z,5.70
2023-06-22T22:34:01.553Z,5.60
2023-06-22T22:44:01.230Z,5.80
2023-06-22T22:54:00.818Z,5.30
2023-06-22T23:04:00.717Z,5.60
2023-06-22T23:14:00.109Z,6.20
2023-06-22T23:23:59.747Z,6.10
2023-06-22T23:33:59.638Z,6.10
2023-06-22T23:44:05.016Z,6.20
2023-06-22T23:54:04.442Z,5.80
